Погода Студенкана неделю

Гродненская область, Белоруссия

19 - 25 июля
  • 19июля
    Сегодня
    +13°
    +24°
    Ясно и безоблачно
    ВремяПогодаТемператураВлажностьДавлениеВетер, м/сВероятность осадков
    00:00Ясно и безоблачно+18°C81 %749 мм2.6 м/с2 %
    03:00Облачно с прояснениями+16°C81 %750 мм3.1 м/с2 %
    06:00Небольшая облачность+15°C87 %750 мм2.9 м/с2 %
    09:00Практически безоблачно+18°C77 %750 мм4.0 м/с2 %
    12:00Ясно и безоблачно+21°C64 %749 мм3.6 м/с2 %
    15:00Ясно и безоблачно+23°C55 %749 мм4.2 м/с2 %
    18:00Ясно и безоблачно+24°C53 %748 мм3.9 м/с2 %
    21:00Ясно и безоблачно+21°C64 %747 мм2.2 м/с2 %
  • 20июля
    Суббота
    +13°
    +24°
    Облачно с прояснениями
    ВремяПогодаТемператураВлажностьДавлениеВетер, м/сВероятность осадков
    00:00Ясно и безоблачно+17°C69 %747 мм2.9 м/с2 %
    03:00Ясно и безоблачно+15°C78 %747 мм2.8 м/с2 %
    06:00Ясно и безоблачно+14°C87 %746 мм2.6 м/с2 %
    09:00Ясно и безоблачно+18°C79 %746 мм2.3 м/с2 %
    12:00Практически безоблачно+21°C63 %746 мм2.3 м/с7 %
    15:00Облачно с прояснениями+23°C52 %745 мм3.3 м/с12 %
    18:00Облачно с прояснениями+23°C52 %744 мм3.3 м/с8 %
    21:00Небольшая облачность+20°C73 %744 мм1.9 м/с2 %
  • 21июля
    Воскресенье
    +15°
    +26°
    Практически безоблачно
    ВремяПогодаТемператураВлажностьДавлениеВетер, м/сВероятность осадков
    00:00Ясно и безоблачно+17°C77 %744 мм1.7 м/с2 %
    03:00Ясно и безоблачно+14°C85 %744 мм1.2 м/с2 %
    06:00Ясно и безоблачно+15°C81 %743 мм0.3 м/с2 %
    09:00Ясно и безоблачно+21°C66 %743 мм0.5 м/с2 %
    12:00Облачно с прояснениями+23°C49 %744 мм1.2 м/с17 %
    15:00Практически безоблачно+24°C47 %743 мм1.1 м/с43 %
    18:00Практически безоблачно+25°C46 %742 мм0.8 м/с32 %
    21:00Практически безоблачно+22°C68 %743 мм1.8 м/с9 %
  • 22июля
    Понедельник
    +14°
    +27°
    Ясно и безоблачно
    ВремяПогодаТемператураВлажностьДавлениеВетер, м/сВероятность осадков
    00:00Практически безоблачно+19°C69 %743 мм2.4 м/с2 %
    03:00Ясно и безоблачно+16°C86 %742 мм1.8 м/с2 %
    06:00Ясно и безоблачно+15°C89 %742 мм1.2 м/с2 %
    09:00Практически безоблачно+21°C72 %743 мм0.8 м/с2 %
    12:00Ясно и безоблачно+25°C52 %743 мм1.4 м/с14 %
    15:00Ясно и безоблачно+26°C48 %743 мм1.7 м/с32 %
    18:00Практически безоблачно+27°C49 %743 мм1.4 м/с38 %
    21:00Ясно и безоблачно+23°C70 %743 мм1.1 м/с12 %
  • 23июля
    Вторник
    +16°
    +27°
    Практически безоблачно
    ВремяПогодаТемператураВлажностьДавлениеВетер, м/сВероятность осадков
    00:00Ясно и безоблачно+19°C82 %743 мм1.9 м/с2 %
    03:00Ясно и безоблачно+16°C91 %743 мм1.7 м/с2 %
    06:00Ясно и безоблачно+15°C94 %743 мм1.1 м/с6 %
    09:00Ясно и безоблачно+21°C72 %744 мм0.8 м/с10 %
    12:00Ясно и безоблачно+25°C49 %744 мм0.5 м/с33 %
    15:00Практически безоблачно+26°C45 %743 мм0.5 м/с39 %
    18:00Небольшая облачность+26°C45 %743 мм0.8 м/с33 %
    21:00Облачно с прояснениями+24°C64 %743 мм1.2 м/с17 %
Мы используем cookies
Соглашаюсь